Time;durP1;ratioP1;P1;durP2;ratioP2;P2;SDS_P1;SDS_P2;PMS_P1;PMS_P2;Temp;Humidity;BMP_temperature;BMP_pressure;BME280_temperature;BME280_humidity;BME280_pressure;Samples;Min_cycle;Max_cycle;Signal;HPM_P1;HPM_P2
2023/03/29 04:51:42;;;;;;;6.13;1.33;;;12.40;62.50;;;;;;4924932;23;20057;-75
2023/03/29 04:54:08;;;;;;;5.13;1.52;;;12.50;63.10;;;;;;4863844;29;20085;-74
2023/03/29 04:56:34;;;;;;;6.88;1.23;;;12.50;63.80;;;;;;4862681;29;20092;-75
2023/03/29 04:59:00;;;;;;;6.28;1.45;;;12.60;63.90;;;;;;4863042;29;20437;-77
2023/03/29 05:01:26;;;;;;;13.65;1.85;;;12.70;63.60;;;;;;4863484;29;20045;-75
2023/03/29 05:03:52;;;;;;;15.13;2.35;;;12.80;63.50;;;;;;4862282;29;20485;-75
2023/03/29 05:06:20;;;;;;;11.90;1.70;;;13.00;64.10;;;;;;4862206;29;20380;-80
2023/03/29 05:08:46;;;;;;;12.30;2.10;;;13.20;64.10;;;;;;4856838;29;20129;-77
2023/03/29 05:11:12;;;;;;;17.85;2.13;;;13.40;64.20;;;;;;4856567;29;20175;-77
2023/03/29 05:13:39;;;;;;;19.33;2.20;;;13.60;64.50;;;;;;4863137;29;20049;-74
2023/03/29 05:16:06;;;;;;;14.57;2.60;;;13.70;64.60;;;;;;4861969;29;20472;-76
2023/03/29 05:18:32;;;;;;;21.80;2.70;;;13.80;64.60;;;;;;4860502;29;20093;-77
2023/03/29 05:20:58;;;;;;;19.55;3.00;;;13.90;64.80;;;;;;4849042;29;20438;-76
2023/03/29 05:23:25;;;;;;;13.27;2.20;;;14.00;65.20;;;;;;4844707;29;20464;-79
2023/03/29 05:25:54;;;;;;;18.30;3.33;;;14.10;65.30;;;;;;4844658;29;20050;-77
2023/03/29 05:28:20;;;;;;;18.83;2.47;;;14.20;65.50;;;;;;4843531;29;20078;-76
2023/03/29 05:30:46;;;;;;;24.02;3.03;;;14.20;65.70;;;;;;4843431;29;20056;-73
2023/03/29 05:33:12;;;;;;;31.13;3.72;;;14.30;65.80;;;;;;4843689;29;20068;-74
2023/03/29 05:35:38;;;;;;;30.20;3.35;;;14.40;65.90;;;;;;4843481;29;20046;-77
2023/03/29 05:38:04;;;;;;;30.77;4.15;;;14.50;66.20;;;;;;4845639;29;20088;-76
2023/03/29 05:40:31;;;;;;;26.13;3.88;;;14.60;61.00;;;;;;4860583;29;20330;-74
2023/03/29 05:42:58;;;;;;;32.58;4.13;;;14.50;65.40;;;;;;4862849;29;20393;-78
2023/03/29 05:45:27;;;;;;;38.08;4.80;;;14.50;66.20;;;;;;4862827;29;20156;-71
2023/03/29 05:47:53;;;;;;;35.53;4.93;;;14.60;66.30;;;;;;4862837;29;20057;-74
2023/03/29 05:50:18;;;;;;;32.75;5.72;;;14.70;66.10;;;;;;4862918;29;20046;-74
2023/03/29 05:52:44;;;;;;;35.30;4.43;;;14.90;66.10;;;;;;4861719;29;20105;-78
2023/03/29 05:55:10;;;;;;;29.83;4.00;;;14.90;65.80;;;;;;4863283;29;20136;-75
2023/03/29 05:57:36;;;;;;;34.38;4.72;;;15.00;65.60;;;;;;4863201;29;20060;-77
2023/03/29 06:00:10;;;;;;;37.92;4.68;;;15.10;65.60;;;;;;4862394;29;20060;-76
2023/03/29 06:02:36;;;;;;;44.42;5.60;;;15.20;65.70;;;;;;4862946;29;20084;-76
2023/03/29 06:05:01;;;;;;;32.13;4.75;;;15.20;65.60;;;;;;4862630;29;20089;-77
2023/03/29 06:07:27;;;;;;;52.13;6.03;;;15.30;65.40;;;;;;4862554;29;20487;-75
2023/03/29 06:09:53;;;;;;;31.83;5.00;;;15.30;65.50;;;;;;4863092;29;20057;-76
2023/03/29 06:12:20;;;;;;;25.65;4.13;;;15.40;65.60;;;;;;4861732;29;20448;-77
2023/03/29 06:14:47;;;;;;;41.38;4.43;;;15.40;65.50;;;;;;4862925;29;20422;-77
2023/03/29 06:17:12;;;;;;;52.17;5.32;;;15.50;65.60;;;;;;4860228;29;20049;-77
2023/03/29 06:19:38;;;;;;;33.10;5.00;;;15.60;65.50;;;;;;4853745;29;20438;-78
2023/03/29 06:22:04;;;;;;;36.17;4.78;;;15.60;65.20;;;;;;4862838;29;20068;-77
2023/03/29 06:24:29;;;;;;;31.80;4.85;;;15.60;64.90;;;;;;4861950;29;20065;-77
2023/03/29 06:26:55;;;;;;;32.20;4.20;;;15.60;64.70;;;;;;4862350;29;20091;-77
2023/03/29 06:29:21;;;;;;;29.85;4.53;;;15.60;64.60;;;;;;4862132;29;20046;-80
2023/03/29 06:31:46;;;;;;;50.00;5.13;;;15.60;64.40;;;;;;4876890;29;20049;-73
2023/03/29 06:34:12;;;;;;;22.70;2.90;;;15.60;64.50;;;;;;4862112;29;20037;-79
2023/03/29 06:36:38;;;;;;;24.95;4.20;;;15.50;64.30;;;;;;4862085;29;20353;-79
2023/03/29 06:39:07;;;;;;;18.20;3.30;;;15.50;64.80;;;;;;4861785;29;20046;-78
2023/03/29 06:41:33;;;;;;;23.65;4.30;;;15.40;64.40;;;;;;4861893;29;20099;-76
2023/03/29 06:43:59;;;;;;;32.60;4.40;;;15.40;64.40;;;;;;4861196;29;20356;-76
2023/03/29 06:46:24;;;;;;;25.20;3.85;;;15.30;64.50;;;;;;4862661;29;20044;-77
2023/03/29 06:48:52;;;;;;;22.67;3.72;;;15.30;64.70;;;;;;4865373;29;20069;-77
2023/03/29 06:51:17;;;;;;;30.15;4.38;;;15.30;64.70;;;;;;4864150;29;20049;-77
2023/03/29 06:54:03;;;;;;;;;;;;;;;;;;;;;
2023/03/29 06:57:13;;;;;;;19.15;3.50;;;15.20;64.40;;;;;;4864163;29;20050;-81
2023/03/29 06:59:38;;;;;;;22.38;3.10;;;15.20;64.00;;;;;;4864478;29;20464;-79
2023/03/29 07:02:06;;;;;;;19.27;3.17;;;15.10;64.50;;;;;;4865542;29;20189;-76
2023/03/29 07:04:31;;;;;;;19.85;2.97;;;15.10;64.90;;;;;;4863750;29;20377;-79
2023/03/29 07:07:00;;;;;;;19.50;3.25;;;15.10;64.50;;;;;;4866033;29;20202;-79
2023/03/29 07:09:30;;;;;;;13.98;3.05;;;15.00;64.30;;;;;;4863509;29;20050;-75
2023/03/29 07:11:57;;;;;;;13.75;3.53;;;15.00;64.30;;;;;;4862068;29;20052;-77
2023/03/29 07:14:29;;;;;;;14.88;2.40;;;15.00;64.40;;;;;;4881407;29;20089;-76
2023/03/29 07:16:57;;;;;;;15.85;2.78;;;15.00;64.50;;;;;;4880258;29;20057;-75
2023/03/29 07:19:24;;;;;;;13.93;2.65;;;15.00;66.80;;;;;;4882873;29;20052;-76
2023/03/29 07:21:53;;;;;;;17.02;3.25;;;15.10;67.50;;;;;;4872873;29;20053;-77
2023/03/29 07:24:20;;;;;;;14.80;3.05;;;15.20;68.30;;;;;;4865202;29;20045;-72
2023/03/29 07:26:47;;;;;;;20.95;3.50;;;15.20;68.30;;;;;;4865082;29;20045;-78
2023/03/29 07:29:13;;;;;;;11.63;2.58;;;15.30;68.40;;;;;;4864332;29;20045;-77
2023/03/29 07:31:40;;;;;;;10.98;2.15;;;15.30;68.30;;;;;;4865150;29;20128;-78
2023/03/29 07:34:11;;;;;;;15.15;2.92;;;15.40;67.70;;;;;;4865025;29;20045;-78
2023/03/29 07:36:37;;;;;;;12.10;2.50;;;15.50;67.40;;;;;;4864329;29;20508;-73
2023/03/29 07:39:08;;;;;;;9.73;2.13;;;15.50;67.50;;;;;;4864387;29;20088;-75
2023/03/29 07:41:34;;;;;;;15.40;2.63;;;15.50;66.20;;;;;;4863987;29;20049;-75
2023/03/29 07:44:08;;;;;;;7.93;2.72;;;15.50;66.00;;;;;;4867554;29;20088;-79
2023/03/29 07:46:35;;;;;;;11.75;2.30;;;15.60;66.70;;;;;;4864487;29;20076;-77
2023/03/29 07:49:02;;;;;;;9.85;2.55;;;15.60;65.70;;;;;;4871765;29;20108;-80
2023/03/29 07:51:30;;;;;;;14.93;2.35;;;15.60;65.60;;;;;;4866577;29;20175;-78
2023/03/29 07:53:56;;;;;;;14.70;3.08;;;15.60;65.30;;;;;;4848178;29;20085;-76
2023/03/29 07:56:22;;;;;;;10.93;2.83;;;15.60;64.30;;;;;;4863694;29;20140;-76
2023/03/29 07:58:48;;;;;;;11.15;2.72;;;15.50;63.70;;;;;;4863286;29;20077;-77
2023/03/29 08:01:14;;;;;;;10.80;2.35;;;15.50;63.40;;;;;;4862331;29;20114;-76
2023/03/29 08:03:41;;;;;;;14.65;3.03;;;15.40;63.20;;;;;;4860176;29;20072;-75
2023/03/29 08:06:07;;;;;;;11.30;2.95;;;15.30;63.00;;;;;;4863432;29;20049;-73
2023/03/29 08:08:33;;;;;;;18.65;3.15;;;15.30;63.20;;;;;;4866740;29;20068;-73
2023/03/29 08:10:58;;;;;;;17.77;2.85;;;15.20;63.30;;;;;;4876206;29;20048;-73
2023/03/29 08:13:24;;;;;;;15.38;3.03;;;15.20;63.50;;;;;;4878772;29;20045;-74
2023/03/29 08:15:50;;;;;;;16.33;3.67;;;15.10;63.40;;;;;;4877995;29;20042;-71
2023/03/29 08:18:16;;;;;;;11.38;2.67;;;15.10;64.50;;;;;;4864381;29;20057;-74
2023/03/29 08:20:42;;;;;;;19.85;3.97;;;15.10;65.10;;;;;;4863749;29;20468;-74
2023/03/29 08:23:08;;;;;;;16.60;2.78;;;15.00;63.90;;;;;;4864466;29;20417;-71
2023/03/29 08:25:34;;;;;;;12.70;2.78;;;15.00;63.60;;;;;;4863549;29;20053;-73
2023/03/29 08:28:00;;;;;;;16.88;3.95;;;15.00;63.60;;;;;;4863634;29;20061;-74
2023/03/29 08:30:26;;;;;;;16.05;3.25;;;15.00;63.60;;;;;;4863295;29;20058;-73
2023/03/29 08:32:52;;;;;;;15.93;3.38;;;15.00;63.70;;;;;;4862832;29;20096;-75
2023/03/29 08:35:18;;;;;;;21.98;3.17;;;15.00;63.80;;;;;;4863413;29;20508;-74
2023/03/29 08:37:44;;;;;;;21.00;3.95;;;15.00;64.00;;;;;;4863397;29;20129;-77
2023/03/29 08:40:25;;;;;;;12.65;3.85;;;15.00;64.00;;;;;;4862665;29;20045;-72
2023/03/29 08:43:21;;;;;;;25.17;3.70;;;15.00;63.90;;;;;;4861960;29;20480;-72
2023/03/29 08:46:09;;;;;;;23.80;4.38;;;15.10;64.10;;;;;;4865394;29;20364;-72
2023/03/29 08:48:42;;;;;;;24.75;4.03;;;15.10;64.20;;;;;;4857985;29;20532;-73
2023/03/29 08:51:37;;;;;;;24.95;3.85;;;15.20;64.30;;;;;;4862037;29;20045;-73
2023/03/29 08:54:20;;;;;;;15.13;3.40;;;15.20;64.50;;;;;;4863978;29;20068;-73
2023/03/29 08:56:47;;;;;;;21.30;3.33;;;15.20;64.40;;;;;;4863119;29;20045;-72
2023/03/29 08:59:19;;;;;;;12.15;2.38;;;15.30;64.50;;;;;;4862221;29;20049;-75
2023/03/29 09:01:47;;;;;;;20.30;3.70;;;15.30;64.40;;;;;;4862702;29;20049;-74
2023/03/29 09:04:17;;;;;;;21.90;3.10;;;15.40;64.30;;;;;;4863467;29;20113;-73
2023/03/29 09:06:43;;;;;;;16.65;3.22;;;15.40;64.20;;;;;;4863363;29;20117;-73
2023/03/29 09:09:19;;;;;;;16.98;3.17;;;15.50;64.00;;;;;;4862594;29;20049;-74
2023/03/29 09:11:53;;;;;;;19.02;3.08;;;15.60;63.80;;;;;;4881284;29;20092;-74
2023/03/29 09:14:31;;;;;;;;;;;15.60;63.60;;;;;;4880822;29;20049;-73
2023/03/29 09:17:15;;;;;;;15.70;2.53;;;15.70;63.40;;;;;;4880714;29;19923;-73
2023/03/29 09:19:49;;;;;;;10.40;2.55;;;15.60;63.20;;;;;;4880766;29;20100;-74
2023/03/29 09:22:22;;;;;;;;;;;15.60;63.10;;;;;;4882040;29;20109;-73
2023/03/29 09:25:05;;;;;;;14.15;2.55;;;15.60;63.00;;;;;;4873433;29;19934;-72
2023/03/29 09:27:49;;;;;;;9.45;2.38;;;15.60;63.00;;;;;;4864746;29;20389;-73
2023/03/29 09:30:27;;;;;;;12.05;2.88;;;15.60;62.90;;;;;;4881197;29;20057;-72
2023/03/29 09:33:22;;;;;;;10.18;2.38;;;15.50;62.90;;;;;;4881854;29;20124;-72
2023/03/29 09:36:03;;;;;;;9.13;2.20;;;15.50;62.90;;;;;;4880542;29;20417;-73
2023/03/29 09:38:30;;;;;;;9.70;2.72;;;15.40;62.80;;;;;;4871938;29;20060;-73
2023/03/29 09:41:25;;;;;;;8.68;2.17;;;15.40;62.80;;;;;;4862360;29;20053;-72
2023/03/29 09:43:53;;;;;;;8.32;2.70;;;15.40;62.60;;;;;;4861901;29;20053;-72
2023/03/29 09:46:42;;;;;;;9.57;2.45;;;15.40;62.80;;;;;;4863121;29;20057;-72
2023/03/29 09:49:20;;;;;;;10.38;2.72;;;15.40;62.80;;;;;;4861498;29;20205;-76
2023/03/29 09:51:48;;;;;;;8.52;2.65;;;15.30;62.70;;;;;;4862209;29;20064;-77
2023/03/29 09:54:15;;;;;;;9.43;2.88;;;15.30;62.70;;;;;;4861448;29;20512;-74
2023/03/29 09:56:41;;;;;;;7.72;2.88;;;15.30;62.70;;;;;;4863392;29;20132;-73
2023/03/29 09:59:11;;;;;;;14.52;3.70;;;15.30;62.80;;;;;;4874398;29;20049;-72
2023/03/29 10:01:40;;;;;;;15.27;4.00;;;15.20;63.20;;;;;;4870819;29;20057;-73
2023/03/29 10:04:08;;;;;;;14.25;4.03;;;15.20;64.70;;;;;;4862024;29;20060;-74
2023/03/29 10:06:35;;;;;;;16.35;3.53;;;15.20;66.10;;;;;;4862959;29;20096;-78
2023/03/29 10:09:03;;;;;;;14.75;3.00;;;15.30;65.70;;;;;;4862493;29;20483;-78
2023/03/29 10:11:34;;;;;;;16.27;3.65;;;15.30;65.20;;;;;;4862513;29;20105;-79
2023/03/29 10:14:05;;;;;;;8.15;2.70;;;15.30;65.20;;;;;;4861399;29;20045;-77
2023/03/29 10:16:38;;;;;;;14.55;4.53;;;15.30;65.50;;;;;;4862671;29;20159;-79
2023/03/29 10:19:33;;;;;;;14.30;4.22;;;15.30;66.30;;;;;;4862591;29;20121;-76
2023/03/29 10:22:23;;;;;;;20.35;9.00;;;15.30;66.80;;;;;;4863546;29;20045;-75
2023/03/29 10:24:54;;;;;;;29.67;11.77;;;15.30;69.30;;;;;;4850316;29;20059;-75
2023/03/29 10:27:23;;;;;;;25.63;15.32;;;15.30;69.30;;;;;;4865057;29;20049;-74
2023/03/29 10:29:50;;;;;;;30.33;15.60;;;15.30;71.70;;;;;;4864916;29;20093;-77
2023/03/29 10:32:20;;;;;;;24.42;10.93;;;15.40;73.30;;;;;;4866221;29;20041;-76
2023/03/29 10:34:46;;;;;;;19.10;9.95;;;15.40;73.50;;;;;;4865666;29;20037;-75
2023/03/29 10:37:17;;;;;;;19.42;9.40;;;15.40;73.10;;;;;;4866153;29;20362;-75
2023/03/29 10:39:44;;;;;;;23.45;8.88;;;15.40;73.80;;;;;;4865649;29;20053;-79
2023/03/29 10:42:15;;;;;;;19.50;9.27;;;15.40;74.50;;;;;;4864790;29;20046;-79
2023/03/29 10:44:51;;;;;;;19.17;8.85;;;15.40;75.00;;;;;;4865127;29;20418;-75
2023/03/29 10:47:20;;;;;;;19.15;9.10;;;15.50;74.80;;;;;;4865902;29;20079;-80
2023/03/29 10:49:54;;;;;;;16.65;8.05;;;15.50;72.80;;;;;;4865726;29;20453;-78
2023/03/29 10:52:21;;;;;;;14.98;8.02;;;15.50;70.80;;;;;;4864645;29;20089;-79
2023/03/29 10:54:58;;;;;;;17.80;9.50;;;15.50;69.50;;;;;;4849509;29;20046;-80
2023/03/29 10:58:05;;;;;;;18.73;9.35;;;15.50;68.70;;;;;;4864861;29;20045;-79
2023/03/29 11:00:53;;;;;;;14.80;8.82;;;15.40;68.00;;;;;;4865492;29;20068;-74
2023/03/29 11:03:47;;;;;;;13.13;7.97;;;15.40;68.00;;;;;;4859681;29;20398;-76
2023/03/29 11:06:13;;;;;;;;;;;15.30;67.00;;;;;;4862209;29;20085;-76
2023/03/29 11:09:00;;;;;;;20.15;8.85;;;15.30;67.30;;;;;;4847060;29;19975;-75
2023/03/29 11:11:42;;;;;;;21.70;9.13;;;15.30;67.70;;;;;;4847176;29;20373;-76
2023/03/29 11:14:08;;;;;;;17.05;9.07;;;15.30;68.10;;;;;;4847081;29;20058;-79
2023/03/29 11:16:52;;;;;;;22.20;8.80;;;15.20;68.20;;;;;;4847732;29;20114;-74
2023/03/29 11:19:36;;;;;;;17.85;8.63;;;15.20;68.50;;;;;;4859445;29;20068;-78
2023/03/29 11:22:18;;;;;;;15.75;8.40;;;15.20;68.20;;;;;;4862560;29;20362;-76
2023/03/29 11:25:10;;;;;;;18.55;7.75;;;15.20;68.10;;;;;;4865611;29;20065;-76
2023/03/29 11:27:53;;;;;;;18.35;8.95;;;15.20;67.90;;;;;;4864142;29;20435;-78
2023/03/29 11:30:30;;;;;;;16.52;8.57;;;15.20;67.70;;;;;;4864052;29;20124;-76
2023/03/29 11:33:01;;;;;;;21.52;8.27;;;15.20;67.70;;;;;;4858427;29;20045;-77
2023/03/29 11:35:53;;;;;;;20.80;8.23;;;15.20;68.10;;;;;;4848644;29;20057;-76
2023/03/29 11:38:45;;;;;;;17.23;8.60;;;15.20;67.60;;;;;;4864945;29;20057;-77
2023/03/29 11:41:19;;;;;;;16.05;7.43;;;15.20;67.60;;;;;;4864185;29;20516;-74
2023/03/29 11:43:47;;;;;;;;;;;15.20;67.80;;;;;;4865206;29;20178;-75
2023/03/29 11:46:34;;;;;;;14.38;7.53;;;15.10;67.30;;;;;;4865323;29;19989;-75
2023/03/29 11:48:59;;;;;;;14.80;7.13;;;15.10;67.70;;;;;;4864087;29;20049;-76
2023/03/29 11:51:31;;;;;;;13.10;7.25;;;15.10;67.80;;;;;;4864634;29;20061;-76
2023/03/29 11:54:05;;;;;;;15.88;7.63;;;15.10;67.80;;;;;;4864164;29;20096;-76
2023/03/29 11:56:38;;;;;;;;;;;15.10;67.90;;;;;;4863694;29;20061;-75
2023/03/29 11:59:21;;;;;;;16.73;7.70;;;15.10;67.50;;;;;;4863920;29;19924;-77
2023/03/29 12:02:13;;;;;;;11.88;6.63;;;15.10;67.80;;;;;;4864841;29;20128;-77
2023/03/29 12:04:43;;;;;;;15.05;7.07;;;15.10;67.90;;;;;;4860659;29;20057;-77
2023/03/29 12:07:27;;;;;;;16.23;7.63;;;15.10;67.90;;;;;;4864391;29;20476;-75
2023/03/29 12:10:16;;;;;;;12.55;6.30;;;15.10;67.70;;;;;;4864050;29;20373;-76
2023/03/29 12:12:59;;;;;;;11.32;6.07;;;15.10;67.80;;;;;;4864091;29;20549;-75
2023/03/29 12:15:30;;;;;;;13.02;7.28;;;15.00;67.80;;;;;;4864156;29;20064;-77
2023/03/29 12:18:25;;;;;;;13.30;6.38;;;15.00;67.70;;;;;;4863430;29;20053;-76
2023/03/29 12:20:58;;;;;;;12.40;6.25;;;15.00;67.70;;;;;;4855133;29;20490;-77
2023/03/29 12:23:24;;;;;;;13.13;6.97;;;15.00;67.60;;;;;;4864300;29;20126;-77
2023/03/29 12:26:04;;;;;;;11.65;6.72;;;15.00;67.60;;;;;;4862802;29;20354;-79
2023/03/29 12:29:04;;;;;;;16.67;6.63;;;15.00;67.30;;;;;;4845754;29;20113;-74
2023/03/29 12:31:43;;;;;;;12.20;6.60;;;15.00;67.40;;;;;;4857610;29;20457;-76
2023/03/29 12:34:37;;;;;;;19.80;7.03;;;15.00;67.60;;;;;;4863204;29;20072;-77
2023/03/29 12:37:29;;;;;;;25.73;7.17;;;15.10;67.70;;;;;;4858299;29;20042;-77
2023/03/29 12:40:10;;;;;;;18.70;7.47;;;15.10;67.80;;;;;;4845182;29;20050;-77
2023/03/29 12:42:53;;;;;;;23.52;8.27;;;15.00;67.80;;;;;;4861082;29;20377;-76
2023/03/29 12:45:28;;;;;;;29.08;8.50;;;15.00;68.00;;;;;;4861853;29;20049;-76
2023/03/29 12:47:55;;;;;;;26.83;8.75;;;15.10;68.30;;;;;;4847210;29;20049;-74
2023/03/29 12:50:33;;;;;;;29.60;9.05;;;15.10;68.70;;;;;;4862061;29;20571;-80
2023/03/29 12:53:15;;;;;;;26.52;9.30;;;15.10;69.50;;;;;;4862333;29;20145;-76
2023/03/29 12:55:41;;;;;;;27.83;8.68;;;15.10;69.60;;;;;;4863793;29;20041;-79
2023/03/29 12:58:24;;;;;;;27.65;7.60;;;15.10;69.90;;;;;;4863670;29;20467;-75
2023/03/29 13:01:22;;;;;;;39.78;8.77;;;15.10;69.30;;;;;;4863247;29;20109;-76
2023/03/29 13:27:53;;;;;;;66.50;12.05;;;15.10;68.90;;;;;;5064038;28;20694;-75
2023/03/29 13:30:37;;;;;;;57.72;12.05;;;15.30;69.90;;;;;;5034723;28;20373;-74
2023/03/29 13:33:15;;;;;;;46.78;10.95;;;15.20;70.10;;;;;;5052354;28;20048;-76
2023/03/29 13:35:41;;;;;;;50.58;11.18;;;15.20;70.00;;;;;;5052221;28;20045;-75
2023/03/29 13:38:30;;;;;;;51.55;11.63;;;15.20;70.00;;;;;;5052222;28;20524;-77
2023/03/29 13:41:03;;;;;;;35.15;10.10;;;15.20;70.00;;;;;;5051934;28;20049;-76
2023/03/29 13:43:52;;;;;;;40.35;9.98;;;15.20;69.90;;;;;;5052625;28;20369;-75
2023/03/29 13:46:33;;;;;;;36.88;8.95;;;15.20;69.90;;;;;;5051695;28;20118;-77
2023/03/29 13:49:14;;;;;;;34.15;8.65;;;15.20;70.00;;;;;;5034768;28;20092;-75
2023/03/29 13:52:03;;;;;;;25.85;8.68;;;15.20;69.90;;;;;;5052046;28;20045;-76
2023/03/29 13:54:55;;;;;;;29.95;8.30;;;15.20;69.90;;;;;;5034138;28;20139;-76
2023/03/29 13:57:42;;;;;;;29.00;8.27;;;15.10;69.90;;;;;;5052064;28;20103;-77
2023/03/29 14:00:18;;;;;;;29.65;8.23;;;15.10;69.70;;;;;;5034221;28;20128;-77
2023/03/29 14:03:02;;;;;;;31.05;8.38;;;15.10;69.60;;;;;;5051581;28;20041;-78
2023/03/29 14:05:34;;;;;;;;;;;15.10;69.60;;;;;;5034645;28;20053;-78
2023/03/29 14:08:16;;;;;;;32.53;8.43;;;15.10;69.40;;;;;;5051724;28;19924;-76
2023/03/29 14:10:44;;;;;;;29.23;9.00;;;15.10;69.40;;;;;;5034135;28;20049;-77
2023/03/29 14:13:16;;;;;;;28.83;8.15;;;15.00;69.20;;;;;;5051639;28;20119;-77
2023/03/29 14:16:05;;;;;;;21.15;7.30;;;15.10;69.10;;;;;;5033213;28;20111;-78
2023/03/29 14:18:38;;;;;;;29.55;8.50;;;15.10;69.00;;;;;;5051050;28;20041;-79
2023/03/29 14:21:05;;;;;;;20.73;7.65;;;15.10;69.00;;;;;;5048775;28;20049;-78
2023/03/29 14:23:35;;;;;;;19.25;8.07;;;15.10;69.00;;;;;;5031008;28;20076;-76
2023/03/29 14:26:17;;;;;;;18.33;7.68;;;15.10;69.00;;;;;;5035159;28;20365;-78
2023/03/29 14:28:52;;;;;;;18.40;7.15;;;15.10;69.00;;;;;;5003820;28;20053;-78
2023/03/29 14:31:24;;;;;;;21.50;8.10;;;15.00;68.80;;;;;;5018160;28;20439;-79
2023/03/29 14:34:01;;;;;;;16.05;6.13;;;15.10;68.90;;;;;;5001408;28;20065;-78
2023/03/29 14:36:27;;;;;;;13.07;5.60;;;15.10;68.80;;;;;;5000779;28;20049;-76
2023/03/29 14:39:06;;;;;;;11.95;5.90;;;15.00;68.60;;;;;;5017980;28;20046;-79
2023/03/29 14:41:35;;;;;;;18.55;5.60;;;15.00;68.80;;;;;;5018113;28;20112;-77
2023/03/29 14:44:04;;;;;;;15.63;5.35;;;15.00;69.00;;;;;;5000561;28;20362;-78
2023/03/29 14:46:30;;;;;;;16.85;5.55;;;15.00;69.20;;;;;;5016747;28;20513;-76
2023/03/29 14:48:57;;;;;;;14.77;5.75;;;15.00;69.20;;;;;;5032908;28;20092;-76
2023/03/29 14:51:29;;;;;;;16.40;5.00;;;15.00;69.10;;;;;;5020418;28;20124;-77
2023/03/29 14:53:57;;;;;;;15.20;5.85;;;15.00;69.20;;;;;;5048153;28;20404;-76
2023/03/29 14:56:25;;;;;;;18.70;6.60;;;15.00;69.20;;;;;;5035750;28;20045;-77
2023/03/29 14:58:55;;;;;;;14.18;5.53;;;15.00;69.30;;;;;;5043889;28;20121;-77
2023/03/29 15:01:24;;;;;;;17.08;5.82;;;15.00;69.10;;;;;;5045832;28;20083;-79
2023/03/29 15:03:55;;;;;;;12.18;5.05;;;15.00;69.00;;;;;;5034536;28;20057;-78
2023/03/29 15:06:23;;;;;;;16.13;5.70;;;15.10;69.10;;;;;;5033286;28;20107;-77
2023/03/29 15:08:50;;;;;;;16.73;6.10;;;15.20;69.10;;;;;;5015601;28;20051;-78
2023/03/29 15:11:22;;;;;;;17.67;6.05;;;15.30;68.90;;;;;;5012415;28;20116;-78
2023/03/29 15:13:51;;;;;;;12.95;5.82;;;15.40;68.80;;;;;;5003117;28;20124;-78
2023/03/29 15:16:21;;;;;;;13.10;4.75;;;15.50;68.70;;;;;;5031450;28;20048;-78
2023/03/29 15:18:50;;;;;;;17.75;5.13;;;15.60;68.60;;;;;;5037057;28;20046;-77
2023/03/29 15:21:19;;;;;;;13.88;5.70;;;15.60;68.50;;;;;;5015429;28;20049;-78
2023/03/29 15:23:54;;;;;;;14.93;4.85;;;15.60;68.50;;;;;;5032144;28;20053;-76
2023/03/29 15:26:27;;;;;;;13.15;5.57;;;15.70;68.50;;;;;;5039759;28;20394;-77
2023/03/29 15:29:11;;;;;;;27.20;7.50;;;15.70;68.40;;;;;;5029330;28;20046;-79
2023/03/29 15:31:40;;;;;;;20.48;7.53;;;15.70;68.50;;;;;;5037153;28;20053;-77
2023/03/29 15:34:24;;;;;;;20.42;8.80;;;15.70;68.40;;;;;;5052243;28;20037;-80
2023/03/29 15:36:50;;;;;;;22.52;8.40;;;15.70;68.30;;;;;;5026951;28;20041;-81
2023/03/29 15:39:18;;;;;;;19.70;8.43;;;15.60;68.70;;;;;;5028611;28;20045;-78
2023/03/29 15:41:47;;;;;;;30.38;8.07;;;15.60;68.90;;;;;;5031407;28;20114;-81
2023/03/29 15:44:32;;;;;;;22.77;7.72;;;15.70;69.00;;;;;;5031770;28;20049;-80
2023/03/29 15:47:23;;;;;;;28.52;8.05;;;15.60;69.30;;;;;;5014961;28;20044;-83
2023/03/29 15:49:50;;;;;;;25.27;7.22;;;15.70;69.20;;;;;;5049310;28;20055;-80
2023/03/29 15:52:16;;;;;;;23.05;7.57;;;15.70;69.20;;;;;;5021608;28;20065;-80
2023/03/29 15:54:44;;;;;;;20.00;7.43;;;15.70;69.10;;;;;;5017083;28;20075;-79
2023/03/29 15:57:13;;;;;;;27.45;8.77;;;15.70;69.30;;;;;;5025909;28;20373;-80
2023/03/29 15:59:39;;;;;;;45.05;8.18;;;15.70;69.40;;;;;;5009694;28;20500;-77
2023/03/29 16:02:06;;;;;;;37.60;9.70;;;15.80;69.50;;;;;;5051637;28;20029;-74
2023/03/29 16:04:35;;;;;;;32.75;7.72;;;15.80;69.70;;;;;;5003816;28;20033;-77
2023/03/29 16:07:01;;;;;;;45.38;8.88;;;15.90;69.80;;;;;;5048631;28;20037;-76
2023/03/29 16:09:26;;;;;;;34.03;8.90;;;15.90;69.70;;;;;;5028478;28;20048;-75
2023/03/29 16:11:52;;;;;;;33.05;7.82;;;16.00;69.70;;;;;;5023841;28;20038;-77
2023/03/29 16:14:21;;;;;;;28.25;7.35;;;16.00;69.70;;;;;;5051913;28;20107;-78
2023/03/29 16:16:48;;;;;;;38.90;7.93;;;16.00;69.70;;;;;;5019156;28;20049;-79
2023/03/29 16:19:14;;;;;;;35.80;7.88;;;16.10;69.80;;;;;;5013003;28;20041;-78
2023/03/29 16:21:41;;;;;;;34.75;7.72;;;16.10;69.90;;;;;;5029350;28;20052;-77
2023/03/29 16:24:15;;;;;;;32.63;7.07;;;16.10;70.00;;;;;;5046968;28;20091;-79
2023/03/29 16:26:41;;;;;;;38.28;7.47;;;16.10;70.10;;;;;;5036947;28;20057;-78
2023/03/29 16:29:08;;;;;;;35.33;7.90;;;16.10;70.30;;;;;;5027360;28;20052;-79
2023/03/29 16:31:34;;;;;;;38.65;8.43;;;16.10;70.40;;;;;;5015854;28;20038;-78
2023/03/29 16:34:00;;;;;;;41.42;9.10;;;16.10;70.30;;;;;;5015293;28;20049;-78
2023/03/29 16:36:27;;;;;;;32.60;8.35;;;16.10;70.10;;;;;;5015470;28;20045;-78
2023/03/29 16:38:56;;;;;;;29.15;9.02;;;16.10;69.90;;;;;;5014857;28;20049;-82
2023/03/29 16:41:25;;;;;;;30.83;9.13;;;16.00;69.20;;;;;;4998483;28;20072;-81
2023/03/29 16:43:54;;;;;;;31.00;8.30;;;16.00;69.60;;;;;;5015140;28;20740;-82
2023/03/29 16:46:20;;;;;;;53.58;11.82;;;16.00;69.40;;;;;;4997985;28;20046;-81
2023/03/29 16:48:50;;;;;;;35.33;8.48;;;15.90;69.40;;;;;;5015465;28;20127;-81
2023/03/29 16:51:17;;;;;;;37.50;9.70;;;15.80;69.60;;;;;;5014784;28;20053;-81
2023/03/29 16:53:43;;;;;;;43.45;9.20;;;15.80;69.60;;;;;;4982428;28;20038;-75
2023/03/29 16:56:36;;;;;;;30.05;8.45;;;15.80;69.70;;;;;;4997625;28;20058;-81
2023/03/29 16:59:58;;;;;;;43.95;9.43;;;15.80;70.90;;;;;;4935126;29;20092;-81
2023/03/29 17:03:25;;;;;;;;;;;;;;;;;;;;;
2023/03/29 17:37:50;;;;;;;14.32;6.38;;;15.60;68.70;;;;;;5300436;23;20105;-82
2023/03/29 17:43:58;;;;;;;18.73;6.30;;;15.60;69.30;;;;;;4975425;28;20494;-80
2023/03/29 17:46:29;;;;;;;15.10;5.72;;;15.60;69.20;;;;;;4958908;28;20502;-82
